Aérodrome :
LOGIN :

S'inscrire | Disclaimer

   EN    FR    IT 

 










Légende :    VFR   VFR Marginal   IFR   IFR Intensif   IFR Très Intensif
Visi : 
Plafond : 
>= 8 km
>= 3000ft
5 à 8 km
1000 à 3000 ft
1500m à 5 km
500 à 1000 ft
800 à 1500m
200 à 500 ft
< 800m
< 200 ft
Symboles :   Orages  Brouillard  Fortes neiges  Fortes précipitations  Vent > 20 kt
SIGMETs :   Divers  Orages  Givrage  Turbulence  Onde Orograph.  Cendres Volcan.







- Altitude de l'aérodrome : 7 ft
- Code IATA : POW


LJPZ - Portoroz

DERNIER METAR :
  • 240000Z AUTO 13004KT 9999 NCD 22/18 Q1010

METARs EXPIRÉS :
  • 232330Z AUTO 11003KT 9999 NCD 23/19 Q1011
  • 232300Z AUTO VRB03KT 9999 BKN070/// BKN110/// 24/18 Q1011
  • 232230Z AUTO VRB03KT 9999 FEW070/// 25/18 Q1011
  • 232200Z AUTO 12004KT 9999 FEW070/// SCT090/// 24/18 Q1011
  • 232130Z AUTO 14005KT 110V190 9999 NSC 24/19 Q1011

TAF TAF LJPZ
Valide du 24 à 00h jusqu'au 24 à 09h UTC


232300Z 2400/2409 15005KT CAVOK
BECMG 2402/2405 18010KT SCT050 BKN090
TEMPO 2400/2409 VRB15G25KT 5000 TSRA BKN050CB OVC060
Pas de NOTAMs connus pour ce terrain.



MET'MAP, la Météo Aéronautique d'un coup d'oeil ! - Copyright ORBIFLY Décembre 2007 - Disclaimer

ORBIFLY MET'MAP TEAM :

Programmation & Développement : Alexandra Zaïnal
Conception & Développement : Baudouin d'Aumeries
Co-Programmation & Développement : Marc-Olivier Méhu
Soutien technique & logistique : Manuel Goepfert

Contact : metmap@orbifly.com




SOURCES & CREDITS :

   NOAA